Station: Nullarbor

  Atmospheric Gas Attenuation - ITU Rec 676-11   --------------- db/100km ---------------
Date Time Temp RH % AH g/m3 Dew Point Wind Direction Speed kph Gust kph Barometer mB Rainfall Since 9am 24GHz 47GHz 76GHz 122GHz 134GHz 241GHz
15 01:00 10.6 97 9.47 10.1 7 9 1021.8 0 21.6 28.7 45.6 119.7 115.6 398.0
15 00:50 10.1 96 9.08 9.5 7 9 1021.7 0 20.8 28.2 44.2 115.9 110.7 381.0
15 00:40 10.2 96 9.14 9.6 7 9 1021.8 0 20.9 28.2 44.4 116.5 111.5 383.6
15 00:30 10.5 97 9.41 10 9 9 1022 0 21.5 28.6 45.4 119.2 114.9 395.6
15 00:20 9.9 96 8.97 9.3 9 9 1022 0 20.6 28.0 43.8 115.0 109.5 376.6
15 00:10 9.8 95 8.82 9 11 11 1022.2 0 20.3 27.8 43.2 113.4 107.5 369.7
15 00:00 9.7 94 8.67 8.8 11 13 1022.6 0 19.9 27.6 42.7 111.9 105.6 362.9
14 23:50 10.4 95 9.16 9.6 11 11 1022.3 0 21.0 28.2 44.4 116.5 111.5 383.7
14 23:40 10.7 95 9.33 9.9 9 11 1022.4 0 21.3 28.4 44.9 118.0 113.5 390.7
14 23:30 11 95 9.51 10.2 9 11 1022.6 0 21.7 28.7 45.6 119.6 115.6 398.2
14 23:20 11.3 94 9.59 10.4 7 9 1022.4 0 21.8 28.7 45.7 120.1 116.3 400.6
14 23:10 11.4 94 9.65 10.5 7 9 1022.5 0 22.0 28.8 45.9 120.6 117.0 403.1
14 23:00 11.7 94 9.83 10.8 7 9 1022.9 0 22.3 29.0 46.5 122.3 119.1 410.6
14 22:50 12 94 10.02 11.1 9 9 1022.7 0 22.7 29.2 47.2 124.0 121.4 418.5
14 22:40 12.2 93 10.04 11.1 9 11 1022.6 0 22.7 29.2 47.1 123.9 121.3 418.3
14 22:30 12.5 94 10.34 11.6 11 13 1022.8 0 23.4 29.6 48.3 126.9 125.2 431.8
14 22:20 12.5 92 10.12 11.2 11 11 1022.9 0 22.9 29.2 47.3 124.4 122.0 420.8
14 22:10 12.8 93 10.42 11.7 11 13 1022.8 0 23.5 29.7 48.4 127.4 125.8 434.1
14 22:00 12.9 92 10.37 11.6 9 11 1022.9 0 23.4 29.5 48.2 126.6 125.0 431.1
14 21:50 13.1 92 10.5 11.8 9 9 1022.7 0 23.7 29.7 48.6 127.8 126.5 436.4
14 21:40 13.2 92 10.56 11.9 9 11 1022.7 0 23.8 29.8 48.8 128.3 127.2 438.9
14 21:30 13.2 92 10.56 11.9 9 11 1023 0 23.8 29.8 48.8 128.4 127.2 439.0
14 21:20 13.3 91 10.51 11.9 9 9 1022.9 0 23.7 29.6 48.5 127.6 126.3 435.9
14 21:10 13.5 92 10.76 12.2 7 9 1022.8 0 24.2 30.0 49.5 130.2 129.5 447.2
14 21:00 13.4 92 10.7 12.1 7 9 1022.9 0 24.1 29.9 49.3 129.7 128.9 444.8
14 20:50 13.5 91 10.64 12.1 9 9 1022.7 0 24.0 29.8 49.0 128.8 127.8 441.2
14 20:40 13.3 92 10.63 12 13 13 1022.9 0 24.0 29.9 49.1 129.0 128.0 441.9
14 20:30 12.9 91 10.26 11.5 9 11 1022.7 0 23.2 29.3 47.7 125.3 123.4 425.5
14 20:20 12.8 90 10.08 11.2 9 9 1022.3 0 22.8 29.0 46.9 123.4 120.9 417.0
14 20:10 13.1 89 10.16 11.3 7 9 1022.1 0 23.0 29.1 47.1 123.8 121.6 419.3
14 20:00 13.5 89 10.41 11.7 7 9 1022.4 0 23.5 29.4 48.0 126.1 124.5 429.6
14 19:50 13.6 89 10.47 11.8 7 7 1022 0 23.6 29.4 48.1 126.6 125.1 431.9
14 19:40 13.8 88 10.49 11.8 7 7 1022.1 0 23.6 29.4 48.1 126.5 125.1 431.8
14 19:30 14 88 10.61 12 11 13 1022.3 0 23.9 29.6 48.5 127.5 126.5 436.7
14 19:20 14.1 88 10.68 12.1 11 13 1022 0 24.0 29.6 48.7 128.2 127.3 439.5
14 19:10 13.9 89 10.67 12.1 11 13 1021.8 0 24.0 29.7 48.8 128.3 127.5 440.1
14 19:00 14.1 88 10.68 12.1 11 13 1021.8 0 24.0 29.6 48.7 128.1 127.3 439.4
14 18:50 14.1 88 10.68 12.1 13 15 1021.8 0 24.0 29.6 48.7 128.1 127.3 439.4
14 18:40 13.9 90 10.79 12.3 15 17 1021.7 0 24.3 29.9 49.3 129.7 129.2 446.0
14 18:30 14 89 10.74 12.2 11 15 1021.7 0 24.1 29.8 49.0 129.0 128.3 443.0
14 18:20 14.2 89 10.87 12.4 11 15 1021.3 0 24.4 29.9 49.5 130.1 129.8 448.2
14 18:10 14.6 88 11.01 12.6 15 17 1021.2 0 24.7 30.0 49.8 131.0 131.1 452.8
14 18:00 14.8 88 11.15 12.8 17 20 1021.3 0 25.0 30.2 50.3 132.3 132.7 458.6
14 17:50 14.9 87 11.09 12.8 17 20 1020.9 0 24.8 30.0 49.9 131.4 131.7 454.9
14 17:40 15.1 85 10.97 12.6 17 20 1020.8 0 24.6 29.8 49.3 129.7 129.6 447.7
14 17:30 15.1 84 10.84 12.4 19 22 1020.8 0 24.3 29.5 48.7 128.2 127.8 441.3
14 17:20 15.4 84 11.04 12.7 19 22 1020.4 0 24.7 29.8 49.4 129.9 130.1 449.3
14 17:10 15.5 87 11.5 13.3 19 20 1020.4 0 25.7 30.5 51.3 135.1 136.4 471.6
14 17:00 16.2 79 10.89 12.6 26 33 1020.4 0 24.3 29.2 48.2 126.9 126.6 437.4
14 16:50 16.7 77 10.94 12.7 26 33 1020.1 0 24.4 29.1 48.1 126.6 126.4 436.9
14 16:40 16.8 77 11.01 12.7 30 35 1019.9 0 24.6 29.2 48.4 127.2 127.2 439.6
14 16:30 15.9 83 11.24 13 28 43 1020.1 0 25.1 29.9 49.9 131.4 132.0 456.1
14 16:20 16.6 77 10.88 12.6 33 41 1020 0 24.3 29.1 47.9 126.1 125.8 434.5
14 16:10 17.1 72 10.48 12 24 32 1019.9 0 23.4 28.2 46.0 120.9 119.5 412.7
14 16:00 17.2 69 10.1 11.5 28 39 1020.1 0 22.6 27.6 44.4 116.6 114.3 394.3
14 15:50 17.3 69 10.16 11.6 28 33 1019.9 0 22.7 27.6 44.5 117.1 114.9 396.6
14 15:40 17.6 67 10.05 11.4 22 28 1020 0 22.5 27.4 43.9 115.4 113.0 390.0
14 15:30 17.3 67 9.87 11.1 32 43 1020.1 0 22.1 27.2 43.4 114.0 111.1 383.2
14 15:20 17.9 66 10.08 11.5 30 41 1019.6 0 22.5 27.3 43.9 115.3 112.9 389.8
14 15:10 17.3 69 10.16 11.6 30 35 1019.8 0 22.7 27.6 44.5 117.1 114.9 396.5
14 15:00 17.5 69 10.29 11.8 32 46 1019.8 0 23.0 27.8 45.0 118.2 116.3 401.6
14 14:50 17.6 68 10.2 11.6 35 43 1019.7 0 22.8 27.6 44.5 117.0 115.0 396.9
14 14:40 17.4 66 9.78 11 32 39 1019.8 0 21.9 27.0 43.0 112.8 109.7 378.4
14 14:30 18.2 61 9.48 10.6 33 43 1019.9 0 21.2 26.3 41.3 108.5 104.7 361.0
14 14:20 18.2 60 9.33 10.3 33 41 1019.8 0 20.9 26.0 40.8 107.0 102.8 354.3
14 14:10 18.2 62 9.64 10.8 32 37 1019.7 0 21.6 26.5 42.0 110.2 106.8 368.2
14 14:00 18 61 9.37 10.4 33 43 1020 0 21.0 26.2 41.0 107.7 103.6 357.0
14 13:50 18.7 60 9.61 10.8 24 33 1020 0 21.5 26.3 41.6 109.2 105.7 364.6
14 13:40 18.3 61 9.54 10.7 30 33 1019.9 0 21.4 26.3 41.5 109.0 105.3 363.3
14 13:30 18.3 60 9.38 10.4 39 44 1019.9 0 21.0 26.1 40.9 107.4 103.3 356.1
14 13:20 18.5 60 9.49 10.6 35 41 1019.9 0 21.2 26.2 41.2 108.2 104.4 360.1
14 13:10 18.7 62 9.93 11.3 30 37 1020.1 0 22.2 26.8 42.9 112.6 109.9 379.1
14 13:00 18.2 61 9.48 10.6 32 39 1020.3 0 21.2 26.3 41.4 108.6 104.7 361.2
14 12:50 18.8 61 9.82 11.1 26 33 1020.1 0 21.9 26.6 42.4 111.3 108.3 373.7
14 12:40 18.2 60 9.33 10.3 32 39 1020.3 0 20.9 26.0 40.8 107.0 102.8 354.4
14 12:30 18.5 60 9.49 10.6 28 37 1020.4 0 21.2 26.2 41.2 108.3 104.5 360.3
14 12:20 18.4 61 9.59 10.7 26 35 1020.3 0 21.5 26.4 41.7 109.5 105.9 365.2
14 12:10 17.6 62 9.3 10.2 28 32 1020.5 0 20.9 26.2 41.0 107.5 103.2 355.8
14 12:00 17.6 65 9.75 10.9 28 39 1020.9 0 21.8 26.9 42.8 112.3 109.1 376.4
14 11:50 18.2 65 10.1 11.5 28 37 1020.6 0 22.5 27.3 43.8 115.2 112.8 389.5
14 11:40 17.4 67 9.93 11.2 26 32 1020.9 0 22.2 27.3 43.6 114.5 111.8 385.7
14 11:30 17.5 67 9.99 11.3 26 35 1021.1 0 22.3 27.3 43.8 115.1 112.4 388.0
14 11:20 17.3 70 10.31 11.8 24 28 1021 0 23.0 27.9 45.2 118.8 117.0 403.9
14 11:10 16.9 71 10.21 11.6 28 33 1021 0 22.9 27.9 45.0 118.3 116.3 401.3
14 11:00 16.6 73 10.31 11.7 22 35 1021.2 0 23.1 28.2 45.6 119.9 118.1 407.6
14 10:50 16.2 78 10.76 12.4 20 24 1021.2 0 24.1 29.0 47.7 125.5 124.9 431.4
14 10:40 15.6 79 10.51 12 22 26 1021.4 0 23.6 28.8 47.1 123.7 122.4 422.6
14 10:30 15.4 81 10.64 12.2 20 28 1021.7 0 23.9 29.1 47.7 125.5 124.6 430.1
14 10:20 15 85 10.9 12.5 20 22 1021.4 0 24.4 29.7 49.1 129.1 128.9 445.1
14 10:10 14.6 87 10.89 12.5 20 22 1021.4 0 24.4 29.8 49.3 129.7 129.4 446.9
14 10:00 14 90 10.86 12.4 20 24 1021.5 0 24.4 30.0 49.6 130.4 130.0 448.9
14 09:50 13.5 91 10.64 12.1 20 22 1021.2 0 24.0 29.7 48.9 128.6 127.7 440.7
14 09:40 12.8 93 10.42 11.7 19 20 1021.2 0 23.5 29.6 48.4 127.2 125.7 433.6
14 09:30 12.2 94 10.14 11.3 19 20 1021 0 23.0 29.3 47.5 124.9 122.6 422.8
14 09:20 11.6 95 9.88 10.8 19 20 1020.8 0 22.4 29.0 46.7 122.8 119.8 413.0
14 09:10 11.1 95 9.57 10.3 22 28 1020.7 0 21.8 28.6 45.7 120.0 116.1 400.1
14 09:00 10.6 96 9.37 10 20 26 1020.8 0 21.4 28.5 45.1 118.4 114.0 392.7
14 08:50 10 97 9.12 9.5 19 22 1020.4 1.2 20.9 28.2 44.3 116.4 111.3 383.1
14 08:40 9.6 97 8.89 9.1 19 19 1020.1 1.2 20.4 27.9 43.5 114.3 108.6 373.5
14 08:30 9.3 97 8.72 8.8 15 19 1020.3 1.2 20.1 27.7 43.0 112.8 106.6 366.6

Last Refresh: 15-Jun-2024 01:12:32

Bureau of Meteorology